sensor_id;sensor_type;location;lat;lon;timestamp;temperature;humidity
4687;DHT22;2357;47.316;-1.348;2023-10-13T00:00:34;19.10;99.90
4687;DHT22;2357;47.316;-1.348;2023-10-13T00:03:03;19.10;99.90
4687;DHT22;2357;47.316;-1.348;2023-10-13T00:05:30;19.00;99.90
4687;DHT22;2357;47.316;-1.348;2023-10-13T00:08:00;19.00;99.90
4687;DHT22;2357;47.316;-1.348;2023-10-13T00:10:35;19.00;99.90
4687;DHT22;2357;47.316;-1.348;2023-10-13T00:13:02;19.10;99.90
4687;DHT22;2357;47.316;-1.348;2023-10-13T00:15:45;19.10;99.90
4687;DHT22;2357;47.316;-1.348;2023-10-13T00:18:27;19.10;99.90
4687;DHT22;2357;47.316;-1.348;2023-10-13T00:20:59;19.10;99.90
4687;DHT22;2357;47.316;-1.348;2023-10-13T00:23:24;19.10;99.90
4687;DHT22;2357;47.316;-1.348;2023-10-13T00:25:52;19.10;99.90
4687;DHT22;2357;47.316;-1.348;2023-10-13T00:28:28;19.10;99.90
4687;DHT22;2357;47.316;-1.348;2023-10-13T00:31:12;19.10;99.90
4687;DHT22;2357;47.316;-1.348;2023-10-13T00:33:40;19.10;99.90
4687;DHT22;2357;47.316;-1.348;2023-10-13T00:36:12;19.10;99.90
4687;DHT22;2357;47.316;-1.348;2023-10-13T00:38:45;19.10;99.90
4687;DHT22;2357;47.316;-1.348;2023-10-13T00:41:14;19.10;99.90
4687;DHT22;2357;47.316;-1.348;2023-10-13T00:43:48;19.10;99.90
4687;DHT22;2357;47.316;-1.348;2023-10-13T00:46:33;19.10;99.90
4687;DHT22;2357;47.316;-1.348;2023-10-13T00:49:00;19.10;99.90
4687;DHT22;2357;47.316;-1.348;2023-10-13T00:51:27;19.10;99.90
4687;DHT22;2357;47.316;-1.348;2023-10-13T00:54:04;19.10;99.90
4687;DHT22;2357;47.316;-1.348;2023-10-13T00:56:41;19.10;99.90
4687;DHT22;2357;47.316;-1.348;2023-10-13T00:59:17;19.10;99.90
4687;DHT22;2357;47.316;-1.348;2023-10-13T01:01:45;19.10;99.90
4687;DHT22;2357;47.316;-1.348;2023-10-13T01:04:11;19.20;99.90
4687;DHT22;2357;47.316;-1.348;2023-10-13T01:06:40;19.20;99.90
4687;DHT22;2357;47.316;-1.348;2023-10-13T01:09:10;19.10;99.90
4687;DHT22;2357;47.316;-1.348;2023-10-13T01:11:49;19.20;99.90
4687;DHT22;2357;47.316;-1.348;2023-10-13T01:14:18;19.10;99.90
4687;DHT22;2357;47.316;-1.348;2023-10-13T01:16:46;19.20;99.90
4687;DHT22;2357;47.316;-1.348;2023-10-13T01:19:16;19.20;99.90
4687;DHT22;2357;47.316;-1.348;2023-10-13T01:21:52;19.20;99.90
4687;DHT22;2357;47.316;-1.348;2023-10-13T01:24:32;19.30;99.90
4687;DHT22;2357;47.316;-1.348;2023-10-13T01:27:05;19.30;99.90
4687;DHT22;2357;47.316;-1.348;2023-10-13T01:29:47;19.30;99.90
4687;DHT22;2357;47.316;-1.348;2023-10-13T01:32:22;19.30;99.90
4687;DHT22;2357;47.316;-1.348;2023-10-13T01:34:48;19.40;99.90
4687;DHT22;2357;47.316;-1.348;2023-10-13T01:37:15;19.40;99.90
4687;DHT22;2357;47.316;-1.348;2023-10-13T01:39:44;19.40;99.90
4687;DHT22;2357;47.316;-1.348;2023-10-13T01:42:13;19.40;99.90
4687;DHT22;2357;47.316;-1.348;2023-10-13T01:44:45;19.40;99.90
4687;DHT22;2357;47.316;-1.348;2023-10-13T01:47:10;19.50;99.90
4687;DHT22;2357;47.316;-1.348;2023-10-13T01:49:38;19.50;99.90
4687;DHT22;2357;47.316;-1.348;2023-10-13T01:52:23;19.50;99.90
4687;DHT22;2357;47.316;-1.348;2023-10-13T01:54:52;19.50;99.90
4687;DHT22;2357;47.316;-1.348;2023-10-13T01:57:19;19.50;99.90
4687;DHT22;2357;47.316;-1.348;2023-10-13T01:59:49;19.50;99.90
4687;DHT22;2357;47.316;-1.348;2023-10-13T02:02:15;19.50;99.90
4687;DHT22;2357;47.316;-1.348;2023-10-13T02:04:54;19.50;99.90
4687;DHT22;2357;47.316;-1.348;2023-10-13T02:07:26;19.50;99.90
4687;DHT22;2357;47.316;-1.348;2023-10-13T02:10:00;19.40;99.90
4687;DHT22;2357;47.316;-1.348;2023-10-13T02:12:29;19.40;99.90
4687;DHT22;2357;47.316;-1.348;2023-10-13T02:15:11;19.40;99.90
4687;DHT22;2357;47.316;-1.348;2023-10-13T02:17:46;19.40;99.90
4687;DHT22;2357;47.316;-1.348;2023-10-13T02:20:17;19.40;99.90
4687;DHT22;2357;47.316;-1.348;2023-10-13T02:22:49;19.40;99.90
4687;DHT22;2357;47.316;-1.348;2023-10-13T02:25:19;19.40;99.90
4687;DHT22;2357;47.316;-1.348;2023-10-13T02:28:23;19.40;99.90
4687;DHT22;2357;47.316;-1.348;2023-10-13T02:30:53;19.50;99.90
4687;DHT22;2357;47.316;-1.348;2023-10-13T02:33:19;19.40;99.90
4687;DHT22;2357;47.316;-1.348;2023-10-13T02:35:48;19.40;99.90
4687;DHT22;2357;47.316;-1.348;2023-10-13T02:38:21;19.40;99.90
4687;DHT22;2357;47.316;-1.348;2023-10-13T02:41:17;19.40;99.90
4687;DHT22;2357;47.316;-1.348;2023-10-13T02:43:54;19.30;99.90
4687;DHT22;2357;47.316;-1.348;2023-10-13T02:46:21;19.30;99.90
4687;DHT22;2357;47.316;-1.348;2023-10-13T02:48:48;19.30;99.90
4687;DHT22;2357;47.316;-1.348;2023-10-13T02:51:19;19.30;99.90
4687;DHT22;2357;47.316;-1.348;2023-10-13T02:53:50;19.20;99.90
4687;DHT22;2357;47.316;-1.348;2023-10-13T02:56:18;19.20;99.90
4687;DHT22;2357;47.316;-1.348;2023-10-13T02:58:52;19.10;99.90
4687;DHT22;2357;47.316;-1.348;2023-10-13T03:01:33;19.10;99.90
4687;DHT22;2357;47.316;-1.348;2023-10-13T03:04:01;19.10;99.90
4687;DHT22;2357;47.316;-1.348;2023-10-13T03:06:27;19.10;99.90
4687;DHT22;2357;47.316;-1.348;2023-10-13T03:09:01;19.10;99.90
4687;DHT22;2357;47.316;-1.348;2023-10-13T03:11:40;19.10;99.90
4687;DHT22;2357;47.316;-1.348;2023-10-13T03:14:09;19.10;99.90
4687;DHT22;2357;47.316;-1.348;2023-10-13T03:16:45;19.20;99.90
4687;DHT22;2357;47.316;-1.348;2023-10-13T03:19:11;19.20;99.90
4687;DHT22;2357;47.316;-1.348;2023-10-13T03:21:36;19.20;99.90
4687;DHT22;2357;47.316;-1.348;2023-10-13T03:24:02;19.20;99.90
4687;DHT22;2357;47.316;-1.348;2023-10-13T03:26:32;19.20;99.90
4687;DHT22;2357;47.316;-1.348;2023-10-13T03:29:05;19.20;99.90
4687;DHT22;2357;47.316;-1.348;2023-10-13T03:31:33;19.20;99.90
4687;DHT22;2357;47.316;-1.348;2023-10-13T03:34:04;19.10;99.90
4687;DHT22;2357;47.316;-1.348;2023-10-13T03:36:29;19.20;99.90
4687;DHT22;2357;47.316;-1.348;2023-10-13T03:39:21;19.20;99.90
4687;DHT22;2357;47.316;-1.348;2023-10-13T03:41:53;19.10;99.90
4687;DHT22;2357;47.316;-1.348;2023-10-13T03:44:19;19.10;99.90
4687;DHT22;2357;47.316;-1.348;2023-10-13T03:46:45;19.10;99.90
4687;DHT22;2357;47.316;-1.348;2023-10-13T03:49:15;19.10;99.90
4687;DHT22;2357;47.316;-1.348;2023-10-13T03:51:45;19.00;99.90
4687;DHT22;2357;47.316;-1.348;2023-10-13T03:54:13;19.00;99.90
4687;DHT22;2357;47.316;-1.348;2023-10-13T03:56:42;19.10;99.90
4687;DHT22;2357;47.316;-1.348;2023-10-13T03:59:10;19.00;99.90
4687;DHT22;2357;47.316;-1.348;2023-10-13T04:01:43;19.10;99.90
4687;DHT22;2357;47.316;-1.348;2023-10-13T04:04:09;19.00;99.90
4687;DHT22;2357;47.316;-1.348;2023-10-13T04:06:37;19.00;99.90
4687;DHT22;2357;47.316;-1.348;2023-10-13T04:12:16;19.00;99.90
4687;DHT22;2357;47.316;-1.348;2023-10-13T04:14:47;19.00;99.90
4687;DHT22;2357;47.316;-1.348;2023-10-13T04:17:31;19.10;99.90
4687;DHT22;2357;47.316;-1.348;2023-10-13T04:20:06;19.00;99.90
4687;DHT22;2357;47.316;-1.348;2023-10-13T04:22:35;19.00;99.90
4687;DHT22;2357;47.316;-1.348;2023-10-13T04:25:22;19.00;99.90
4687;DHT22;2357;47.316;-1.348;2023-10-13T04:28:14;19.00;99.90
4687;DHT22;2357;47.316;-1.348;2023-10-13T04:33:31;18.90;99.90
4687;DHT22;2357;47.316;-1.348;2023-10-13T04:36:22;18.80;99.90
4687;DHT22;2357;47.316;-1.348;2023-10-13T04:38:54;18.80;99.90
4687;DHT22;2357;47.316;-1.348;2023-10-13T04:41:39;18.80;99.90
4687;DHT22;2357;47.316;-1.348;2023-10-13T04:44:14;18.80;99.90
4687;DHT22;2357;47.316;-1.348;2023-10-13T04:46:56;18.80;99.90
4687;DHT22;2357;47.316;-1.348;2023-10-13T04:49:26;18.70;99.90
4687;DHT22;2357;47.316;-1.348;2023-10-13T04:52:04;18.80;99.90
4687;DHT22;2357;47.316;-1.348;2023-10-13T04:54:34;18.70;99.90
4687;DHT22;2357;47.316;-1.348;2023-10-13T04:57:22;18.70;99.90
4687;DHT22;2357;47.316;-1.348;2023-10-13T05:00:06;18.70;99.90
4687;DHT22;2357;47.316;-1.348;2023-10-13T05:02:35;18.70;99.90
4687;DHT22;2357;47.316;-1.348;2023-10-13T05:07:46;18.60;99.90
4687;DHT22;2357;47.316;-1.348;2023-10-13T05:10:31;18.60;99.90
4687;DHT22;2357;47.316;-1.348;2023-10-13T05:13:15;18.60;99.90
4687;DHT22;2357;47.316;-1.348;2023-10-13T05:16:00;18.60;99.90
4687;DHT22;2357;47.316;-1.348;2023-10-13T05:18:44;18.60;99.90
4687;DHT22;2357;47.316;-1.348;2023-10-13T05:21:28;18.60;99.90
4687;DHT22;2357;47.316;-1.348;2023-10-13T05:24:13;18.60;99.90
4687;DHT22;2357;47.316;-1.348;2023-10-13T05:26:57;18.50;99.90
4687;DHT22;2357;47.316;-1.348;2023-10-13T05:29:42;18.50;99.90
4687;DHT22;2357;47.316;-1.348;2023-10-13T05:32:27;18.50;99.90
4687;DHT22;2357;47.316;-1.348;2023-10-13T05:35:12;18.60;99.90
4687;DHT22;2357;47.316;-1.348;2023-10-13T05:37:56;18.60;99.90
4687;DHT22;2357;47.316;-1.348;2023-10-13T05:40:51;18.60;99.90
4687;DHT22;2357;47.316;-1.348;2023-10-13T05:43:35;18.60;99.90
4687;DHT22;2357;47.316;-1.348;2023-10-13T05:46:19;18.70;99.90
4687;DHT22;2357;47.316;-1.348;2023-10-13T05:48:51;18.60;99.90
4687;DHT22;2357;47.316;-1.348;2023-10-13T05:51:22;18.60;99.90
4687;DHT22;2357;47.316;-1.348;2023-10-13T05:54:06;18.60;99.90
4687;DHT22;2357;47.316;-1.348;2023-10-13T05:56:51;18.60;99.90
4687;DHT22;2357;47.316;-1.348;2023-10-13T05:59:37;18.60;99.90
4687;DHT22;2357;47.316;-1.348;2023-10-13T06:02:22;18.60;99.90
4687;DHT22;2357;47.316;-1.348;2023-10-13T06:05:12;18.70;99.90
4687;DHT22;2357;47.316;-1.348;2023-10-13T06:07:56;18.70;99.90
4687;DHT22;2357;47.316;-1.348;2023-10-13T06:10:41;18.80;99.90
4687;DHT22;2357;47.316;-1.348;2023-10-13T06:13:26;18.80;99.90
4687;DHT22;2357;47.316;-1.348;2023-10-13T06:16:12;18.80;99.90
4687;DHT22;2357;47.316;-1.348;2023-10-13T06:18:56;18.80;99.90
4687;DHT22;2357;47.316;-1.348;2023-10-13T06:21:42;18.80;99.90
4687;DHT22;2357;47.316;-1.348;2023-10-13T06:24:26;18.80;99.90
4687;DHT22;2357;47.316;-1.348;2023-10-13T06:27:11;18.80;99.90
4687;DHT22;2357;47.316;-1.348;2023-10-13T06:29:55;18.80;99.90
4687;DHT22;2357;47.316;-1.348;2023-10-13T06:32:21;18.80;99.90
4687;DHT22;2357;47.316;-1.348;2023-10-13T06:34:52;18.80;99.90
4687;DHT22;2357;47.316;-1.348;2023-10-13T06:37:26;18.80;99.90
4687;DHT22;2357;47.316;-1.348;2023-10-13T06:39:56;18.80;99.90
4687;DHT22;2357;47.316;-1.348;2023-10-13T06:42:26;18.70;99.90
4687;DHT22;2357;47.316;-1.348;2023-10-13T06:44:55;18.70;99.90
4687;DHT22;2357;47.316;-1.348;2023-10-13T06:47:21;18.80;99.90
4687;DHT22;2357;47.316;-1.348;2023-10-13T06:49:48;18.80;99.90
4687;DHT22;2357;47.316;-1.348;2023-10-13T06:52:17;18.90;99.90
4687;DHT22;2357;47.316;-1.348;2023-10-13T06:54:43;19.00;99.90
4687;DHT22;2357;47.316;-1.348;2023-10-13T06:57:09;19.10;99.90
4687;DHT22;2357;47.316;-1.348;2023-10-13T06:59:46;19.10;99.90
4687;DHT22;2357;47.316;-1.348;2023-10-13T07:02:12;19.10;99.90
4687;DHT22;2357;47.316;-1.348;2023-10-13T07:04:47;19.20;99.90
4687;DHT22;2357;47.316;-1.348;2023-10-13T07:07:13;19.20;99.90
4687;DHT22;2357;47.316;-1.348;2023-10-13T07:09:42;19.20;99.90
4687;DHT22;2357;47.316;-1.348;2023-10-13T07:12:25;19.20;99.90
4687;DHT22;2357;47.316;-1.348;2023-10-13T07:14:52;19.20;99.90
4687;DHT22;2357;47.316;-1.348;2023-10-13T07:17:19;19.20;99.90
4687;DHT22;2357;47.316;-1.348;2023-10-13T07:19:52;19.20;99.90
4687;DHT22;2357;47.316;-1.348;2023-10-13T07:22:19;19.30;99.90
4687;DHT22;2357;47.316;-1.348;2023-10-13T07:24:46;19.30;99.90
4687;DHT22;2357;47.316;-1.348;2023-10-13T07:27:21;19.30;99.90
4687;DHT22;2357;47.316;-1.348;2023-10-13T07:29:52;19.30;99.90
4687;DHT22;2357;47.316;-1.348;2023-10-13T07:32:23;19.30;99.90
4687;DHT22;2357;47.316;-1.348;2023-10-13T07:34:53;19.30;99.90
4687;DHT22;2357;47.316;-1.348;2023-10-13T07:37:22;19.40;99.90
4687;DHT22;2357;47.316;-1.348;2023-10-13T07:39:53;19.40;99.90
4687;DHT22;2357;47.316;-1.348;2023-10-13T07:42:24;19.40;99.90
4687;DHT22;2357;47.316;-1.348;2023-10-13T07:44:50;19.40;99.90
4687;DHT22;2357;47.316;-1.348;2023-10-13T07:47:21;19.40;99.90
4687;DHT22;2357;47.316;-1.348;2023-10-13T07:49:50;19.50;99.90
4687;DHT22;2357;47.316;-1.348;2023-10-13T07:52:16;19.50;99.90
4687;DHT22;2357;47.316;-1.348;2023-10-13T07:54:45;19.50;99.90
4687;DHT22;2357;47.316;-1.348;2023-10-13T07:57:21;19.50;99.90
4687;DHT22;2357;47.316;-1.348;2023-10-13T07:59:55;19.50;99.90
4687;DHT22;2357;47.316;-1.348;2023-10-13T08:02:32;19.50;99.90
4687;DHT22;2357;47.316;-1.348;2023-10-13T08:05:17;19.50;99.90
4687;DHT22;2357;47.316;-1.348;2023-10-13T08:07:54;19.60;99.90
4687;DHT22;2357;47.316;-1.348;2023-10-13T08:10:22;19.70;99.90
4687;DHT22;2357;47.316;-1.348;2023-10-13T08:12:55;19.90;99.90
4687;DHT22;2357;47.316;-1.348;2023-10-13T08:15:22;20.10;99.90
4687;DHT22;2357;47.316;-1.348;2023-10-13T08:17:58;20.30;99.90
4687;DHT22;2357;47.316;-1.348;2023-10-13T08:20:25;20.40;99.90
4687;DHT22;2357;47.316;-1.348;2023-10-13T08:22:56;20.50;99.90
4687;DHT22;2357;47.316;-1.348;2023-10-13T08:25:39;20.50;99.90
4687;DHT22;2357;47.316;-1.348;2023-10-13T08:28:23;20.60;99.90
4687;DHT22;2357;47.316;-1.348;2023-10-13T08:31:06;20.60;99.90
4687;DHT22;2357;47.316;-1.348;2023-10-13T08:33:51;20.70;99.90
4687;DHT22;2357;47.316;-1.348;2023-10-13T08:36:31;20.70;99.90
4687;DHT22;2357;47.316;-1.348;2023-10-13T08:38:57;20.70;99.90
4687;DHT22;2357;47.316;-1.348;2023-10-13T08:41:23;20.70;99.90
4687;DHT22;2357;47.316;-1.348;2023-10-13T08:43:50;20.70;99.90
4687;DHT22;2357;47.316;-1.348;2023-10-13T08:46:17;20.70;99.90
4687;DHT22;2357;47.316;-1.348;2023-10-13T08:48:58;20.70;99.90
4687;DHT22;2357;47.316;-1.348;2023-10-13T08:51:35;20.80;99.90
4687;DHT22;2357;47.316;-1.348;2023-10-13T08:54:32;20.80;99.90
4687;DHT22;2357;47.316;-1.348;2023-10-13T08:57:01;20.90;99.90
4687;DHT22;2357;47.316;-1.348;2023-10-13T08:59:55;20.90;99.90
4687;DHT22;2357;47.316;-1.348;2023-10-13T09:02:22;20.90;99.90
4687;DHT22;2357;47.316;-1.348;2023-10-13T09:05:09;20.80;99.90
4687;DHT22;2357;47.316;-1.348;2023-10-13T09:07:55;20.90;99.90
4687;DHT22;2357;47.316;-1.348;2023-10-13T09:10:24;20.90;99.90
4687;DHT22;2357;47.316;-1.348;2023-10-13T09:12:59;20.90;99.90
4687;DHT22;2357;47.316;-1.348;2023-10-13T09:15:30;21.00;99.90
4687;DHT22;2357;47.316;-1.348;2023-10-13T09:18:26;21.10;99.90
4687;DHT22;2357;47.316;-1.348;2023-10-13T09:21:08;21.20;99.90
4687;DHT22;2357;47.316;-1.348;2023-10-13T09:23:53;21.20;99.90
4687;DHT22;2357;47.316;-1.348;2023-10-13T09:26:38;21.20;99.90
4687;DHT22;2357;47.316;-1.348;2023-10-13T09:29:14;21.30;99.90
4687;DHT22;2357;47.316;-1.348;2023-10-13T09:31:40;21.40;99.90
4687;DHT22;2357;47.316;-1.348;2023-10-13T09:34:09;21.40;99.90
4687;DHT22;2357;47.316;-1.348;2023-10-13T09:36:35;21.50;99.90
4687;DHT22;2357;47.316;-1.348;2023-10-13T09:39:02;21.60;99.90
4687;DHT22;2357;47.316;-1.348;2023-10-13T09:41:40;21.70;99.90
4687;DHT22;2357;47.316;-1.348;2023-10-13T09:44:06;21.70;99.90
4687;DHT22;2357;47.316;-1.348;2023-10-13T09:46:37;21.80;99.90
4687;DHT22;2357;47.316;-1.348;2023-10-13T09:49:12;21.70;99.90
4687;DHT22;2357;47.316;-1.348;2023-10-13T09:52:01;21.80;99.90
4687;DHT22;2357;47.316;-1.348;2023-10-13T09:54:36;21.80;99.90
4687;DHT22;2357;47.316;-1.348;2023-10-13T09:57:15;22.10;99.90
4687;DHT22;2357;47.316;-1.348;2023-10-13T10:00:00;22.30;99.90
4687;DHT22;2357;47.316;-1.348;2023-10-13T10:02:34;22.40;99.90
4687;DHT22;2357;47.316;-1.348;2023-10-13T10:05:00;22.60;99.90
4687;DHT22;2357;47.316;-1.348;2023-10-13T10:07:39;22.60;99.90
4687;DHT22;2357;47.316;-1.348;2023-10-13T10:10:10;22.70;99.90
4687;DHT22;2357;47.316;-1.348;2023-10-13T10:15:41;22.80;99.90
4687;DHT22;2357;47.316;-1.348;2023-10-13T10:18:29;22.90;99.90
4687;DHT22;2357;47.316;-1.348;2023-10-13T10:21:04;23.10;99.90
4687;DHT22;2357;47.316;-1.348;2023-10-13T10:23:34;23.20;99.90
4687;DHT22;2357;47.316;-1.348;2023-10-13T10:26:16;23.40;99.90
4687;DHT22;2357;47.316;-1.348;2023-10-13T10:28:46;23.50;99.90
4687;DHT22;2357;47.316;-1.348;2023-10-13T10:31:12;23.50;99.90
4687;DHT22;2357;47.316;-1.348;2023-10-13T10:33:39;23.50;99.90
4687;DHT22;2357;47.316;-1.348;2023-10-13T10:36:05;23.50;99.90
4687;DHT22;2357;47.316;-1.348;2023-10-13T10:38:31;23.40;99.90
4687;DHT22;2357;47.316;-1.348;2023-10-13T10:41:06;23.50;99.90
4687;DHT22;2357;47.316;-1.348;2023-10-13T10:48:40;23.50;99.90
4687;DHT22;2357;47.316;-1.348;2023-10-13T10:51:09;23.50;99.90
4687;DHT22;2357;47.316;-1.348;2023-10-13T10:53:51;23.40;99.90
4687;DHT22;2357;47.316;-1.348;2023-10-13T10:56:22;23.30;99.90
4687;DHT22;2357;47.316;-1.348;2023-10-13T10:58:57;23.30;99.90
4687;DHT22;2357;47.316;-1.348;2023-10-13T11:01:28;23.10;99.90
4687;DHT22;2357;47.316;-1.348;2023-10-13T11:04:07;23.10;99.90
4687;DHT22;2357;47.316;-1.348;2023-10-13T11:06:54;23.00;99.90
4687;DHT22;2357;47.316;-1.348;2023-10-13T11:09:29;23.00;99.90
4687;DHT22;2357;47.316;-1.348;2023-10-13T11:15:07;22.90;99.90
4687;DHT22;2357;47.316;-1.348;2023-10-13T11:17:50;22.90;99.90
4687;DHT22;2357;47.316;-1.348;2023-10-13T11:20:18;22.80;99.90
4687;DHT22;2357;47.316;-1.348;2023-10-13T11:22:51;22.80;99.90
4687;DHT22;2357;47.316;-1.348;2023-10-13T11:25:23;22.80;99.90
4687;DHT22;2357;47.316;-1.348;2023-10-13T11:27:55;22.80;99.90
4687;DHT22;2357;47.316;-1.348;2023-10-13T11:30:22;22.80;99.90
4687;DHT22;2357;47.316;-1.348;2023-10-13T11:33:19;22.90;99.90
4687;DHT22;2357;47.316;-1.348;2023-10-13T11:35:58;23.00;99.90
4687;DHT22;2357;47.316;-1.348;2023-10-13T11:38:30;23.00;99.90
4687;DHT22;2357;47.316;-1.348;2023-10-13T11:41:14;23.00;99.90
4687;DHT22;2357;47.316;-1.348;2023-10-13T11:43:48;23.00;99.90
4687;DHT22;2357;47.316;-1.348;2023-10-13T11:49:11;23.10;99.90
4687;DHT22;2357;47.316;-1.348;2023-10-13T11:51:43;23.30;99.90
4687;DHT22;2357;47.316;-1.348;2023-10-13T11:54:16;23.30;99.90
4687;DHT22;2357;47.316;-1.348;2023-10-13T11:56:43;23.40;99.90
4687;DHT22;2357;47.316;-1.348;2023-10-13T11:59:09;23.30;99.90
4687;DHT22;2357;47.316;-1.348;2023-10-13T12:01:45;23.20;99.90
4687;DHT22;2357;47.316;-1.348;2023-10-13T12:04:29;23.20;99.90
4687;DHT22;2357;47.316;-1.348;2023-10-13T12:07:21;23.20;99.90
4687;DHT22;2357;47.316;-1.348;2023-10-13T12:10:10;23.30;99.90
4687;DHT22;2357;47.316;-1.348;2023-10-13T12:12:54;23.40;99.90
4687;DHT22;2357;47.316;-1.348;2023-10-13T12:15:20;23.40;99.90
4687;DHT22;2357;47.316;-1.348;2023-10-13T12:18:02;23.30;99.90
4687;DHT22;2357;47.316;-1.348;2023-10-13T12:20:29;23.20;99.90
4687;DHT22;2357;47.316;-1.348;2023-10-13T12:23:01;23.10;99.90
4687;DHT22;2357;47.316;-1.348;2023-10-13T12:25:41;23.00;99.90
4687;DHT22;2357;47.316;-1.348;2023-10-13T12:28:22;23.00;99.90
4687;DHT22;2357;47.316;-1.348;2023-10-13T12:30:49;22.90;99.90
4687;DHT22;2357;47.316;-1.348;2023-10-13T12:33:16;22.80;99.90
4687;DHT22;2357;47.316;-1.348;2023-10-13T12:35:59;22.60;99.90
4687;DHT22;2357;47.316;-1.348;2023-10-13T12:38:40;22.50;99.90
4687;DHT22;2357;47.316;-1.348;2023-10-13T12:41:12;22.30;99.90
4687;DHT22;2357;47.316;-1.348;2023-10-13T12:43:56;22.20;99.90
4687;DHT22;2357;47.316;-1.348;2023-10-13T12:46:40;22.10;99.90
4687;DHT22;2357;47.316;-1.348;2023-10-13T12:49:24;22.10;99.90
4687;DHT22;2357;47.316;-1.348;2023-10-13T12:52:11;21.90;99.90
4687;DHT22;2357;47.316;-1.348;2023-10-13T12:54:51;21.90;99.90
4687;DHT22;2357;47.316;-1.348;2023-10-13T12:57:26;21.80;99.90
4687;DHT22;2357;47.316;-1.348;2023-10-13T12:59:52;21.70;99.90
4687;DHT22;2357;47.316;-1.348;2023-10-13T13:02:23;21.60;99.90
4687;DHT22;2357;47.316;-1.348;2023-10-13T13:04:53;21.40;99.90
4687;DHT22;2357;47.316;-1.348;2023-10-13T13:07:32;21.30;99.90
4687;DHT22;2357;47.316;-1.348;2023-10-13T13:10:09;21.20;99.90
4687;DHT22;2357;47.316;-1.348;2023-10-13T13:12:36;21.20;99.90
4687;DHT22;2357;47.316;-1.348;2023-10-13T13:15:02;21.20;99.90
4687;DHT22;2357;47.316;-1.348;2023-10-13T13:17:37;21.20;99.90
4687;DHT22;2357;47.316;-1.348;2023-10-13T13:20:05;21.20;99.90
4687;DHT22;2357;47.316;-1.348;2023-10-13T13:22:38;21.30;99.90
4687;DHT22;2357;47.316;-1.348;2023-10-13T13:25:04;21.40;99.90
4687;DHT22;2357;47.316;-1.348;2023-10-13T13:27:34;21.50;99.90
4687;DHT22;2357;47.316;-1.348;2023-10-13T13:30:00;21.50;99.90
4687;DHT22;2357;47.316;-1.348;2023-10-13T13:32:26;21.50;99.90
4687;DHT22;2357;47.316;-1.348;2023-10-13T13:34:54;21.50;99.90
4687;DHT22;2357;47.316;-1.348;2023-10-13T13:37:22;21.60;99.90
4687;DHT22;2357;47.316;-1.348;2023-10-13T13:39:48;21.70;99.90
4687;DHT22;2357;47.316;-1.348;2023-10-13T13:42:18;21.80;99.90
4687;DHT22;2357;47.316;-1.348;2023-10-13T13:44:46;21.80;99.90
4687;DHT22;2357;47.316;-1.348;2023-10-13T13:47:15;21.90;99.90
4687;DHT22;2357;47.316;-1.348;2023-10-13T13:49:42;21.90;99.90
4687;DHT22;2357;47.316;-1.348;2023-10-13T13:52:18;21.90;99.90
4687;DHT22;2357;47.316;-1.348;2023-10-13T13:54:48;21.80;99.90
4687;DHT22;2357;47.316;-1.348;2023-10-13T13:57:14;21.90;99.90
4687;DHT22;2357;47.316;-1.348;2023-10-13T13:59:40;21.80;99.90
4687;DHT22;2357;47.316;-1.348;2023-10-13T14:02:09;21.70;99.90
4687;DHT22;2357;47.316;-1.348;2023-10-13T14:04:47;21.60;99.90
4687;DHT22;2357;47.316;-1.348;2023-10-13T14:07:19;21.60;99.90
4687;DHT22;2357;47.316;-1.348;2023-10-13T14:09:49;21.50;99.90
4687;DHT22;2357;47.316;-1.348;2023-10-13T14:12:20;21.50;99.90
4687;DHT22;2357;47.316;-1.348;2023-10-13T14:15:02;21.50;99.90
4687;DHT22;2357;47.316;-1.348;2023-10-13T14:17:28;21.60;99.90
4687;DHT22;2357;47.316;-1.348;2023-10-13T14:20:01;21.60;99.90
4687;DHT22;2357;47.316;-1.348;2023-10-13T14:22:35;21.60;99.90
4687;DHT22;2357;47.316;-1.348;2023-10-13T14:25:03;21.50;99.90
4687;DHT22;2357;47.316;-1.348;2023-10-13T14:27:34;21.50;99.90
4687;DHT22;2357;47.316;-1.348;2023-10-13T14:30:01;21.40;99.90
4687;DHT22;2357;47.316;-1.348;2023-10-13T14:32:27;21.40;99.90
4687;DHT22;2357;47.316;-1.348;2023-10-13T14:34:54;21.50;99.90
4687;DHT22;2357;47.316;-1.348;2023-10-13T14:37:20;21.50;99.90
4687;DHT22;2357;47.316;-1.348;2023-10-13T14:39:53;21.50;99.90
4687;DHT22;2357;47.316;-1.348;2023-10-13T14:42:26;21.60;99.90
4687;DHT22;2357;47.316;-1.348;2023-10-13T14:44:52;21.60;99.90
4687;DHT22;2357;47.316;-1.348;2023-10-13T14:47:24;21.60;99.90
4687;DHT22;2357;47.316;-1.348;2023-10-13T14:49:53;21.60;99.90
4687;DHT22;2357;47.316;-1.348;2023-10-13T14:52:27;21.60;99.90
4687;DHT22;2357;47.316;-1.348;2023-10-13T14:54:52;21.50;99.90
4687;DHT22;2357;47.316;-1.348;2023-10-13T14:57:21;21.50;99.90
4687;DHT22;2357;47.316;-1.348;2023-10-13T14:59:54;21.40;99.90
4687;DHT22;2357;47.316;-1.348;2023-10-13T15:02:20;21.40;99.90
4687;DHT22;2357;47.316;-1.348;2023-10-13T15:04:49;21.40;99.90
4687;DHT22;2357;47.316;-1.348;2023-10-13T15:07:15;21.40;99.90
4687;DHT22;2357;47.316;-1.348;2023-10-13T15:09:42;21.40;99.90
4687;DHT22;2357;47.316;-1.348;2023-10-13T15:12:09;21.30;99.90
4687;DHT22;2357;47.316;-1.348;2023-10-13T15:14:39;21.20;99.90
4687;DHT22;2357;47.316;-1.348;2023-10-13T15:17:08;21.20;99.90
4687;DHT22;2357;47.316;-1.348;2023-10-13T15:19:35;21.10;99.90
4687;DHT22;2357;47.316;-1.348;2023-10-13T15:22:08;21.00;99.90
4687;DHT22;2357;47.316;-1.348;2023-10-13T15:24:50;20.90;99.90
4687;DHT22;2357;47.316;-1.348;2023-10-13T15:27:34;20.80;99.90
4687;DHT22;2357;47.316;-1.348;2023-10-13T15:30:07;20.80;99.90
4687;DHT22;2357;47.316;-1.348;2023-10-13T15:32:45;20.80;99.90
4687;DHT22;2357;47.316;-1.348;2023-10-13T15:35:11;20.80;99.90
4687;DHT22;2357;47.316;-1.348;2023-10-13T15:37:38;20.80;99.90
4687;DHT22;2357;47.316;-1.348;2023-10-13T15:40:06;20.80;99.90
4687;DHT22;2357;47.316;-1.348;2023-10-13T15:42:35;20.80;99.90
4687;DHT22;2357;47.316;-1.348;2023-10-13T15:45:06;20.80;99.90
4687;DHT22;2357;47.316;-1.348;2023-10-13T15:47:45;20.80;99.90
4687;DHT22;2357;47.316;-1.348;2023-10-13T15:50:15;20.70;99.90
4687;DHT22;2357;47.316;-1.348;2023-10-13T15:52:44;20.70;99.90
4687;DHT22;2357;47.316;-1.348;2023-10-13T15:55:15;20.80;99.90
4687;DHT22;2357;47.316;-1.348;2023-10-13T15:57:43;20.70;99.90
4687;DHT22;2357;47.316;-1.348;2023-10-13T16:00:10;20.80;99.90
4687;DHT22;2357;47.316;-1.348;2023-10-13T16:02:55;20.90;99.90
4687;DHT22;2357;47.316;-1.348;2023-10-13T16:05:32;20.90;99.90
4687;DHT22;2357;47.316;-1.348;2023-10-13T16:08:01;21.00;99.90
4687;DHT22;2357;47.316;-1.348;2023-10-13T16:10:28;20.90;99.90
4687;DHT22;2357;47.316;-1.348;2023-10-13T16:12:54;20.90;99.90
4687;DHT22;2357;47.316;-1.348;2023-10-13T16:15:19;20.90;99.90
4687;DHT22;2357;47.316;-1.348;2023-10-13T16:17:47;20.70;99.90
4687;DHT22;2357;47.316;-1.348;2023-10-13T16:20:13;20.80;99.90
4687;DHT22;2357;47.316;-1.348;2023-10-13T16:22:45;20.70;99.90
4687;DHT22;2357;47.316;-1.348;2023-10-13T16:25:15;20.70;99.90
4687;DHT22;2357;47.316;-1.348;2023-10-13T16:27:42;20.70;99.90
4687;DHT22;2357;47.316;-1.348;2023-10-13T16:30:09;20.70;99.90
4687;DHT22;2357;47.316;-1.348;2023-10-13T16:32:38;20.80;99.90
4687;DHT22;2357;47.316;-1.348;2023-10-13T16:35:06;20.70;99.90
4687;DHT22;2357;47.316;-1.348;2023-10-13T16:37:32;20.60;99.90
4687;DHT22;2357;47.316;-1.348;2023-10-13T16:39:59;20.60;99.90
4687;DHT22;2357;47.316;-1.348;2023-10-13T16:42:31;20.60;99.90
4687;DHT22;2357;47.316;-1.348;2023-10-13T16:44:59;20.50;99.90
4687;DHT22;2357;47.316;-1.348;2023-10-13T16:47:41;20.50;99.90